Impacts TAF Board
For situational awareness. Not to be used for flight planning purposes.
IDs:

KMEM - Memphis Intl, TN, US

Issued at 2130 UTC 19 Jan 2019
Updated at 2252 UTC 19 Jan 2019
Potential Impact None Slight Moderate High
Time2226Z 19/23Z 20/00Z 20/01Z 20/02Z 20/03Z 20/04Z 20/05Z 20/06Z 20/07Z 20/08Z 20/09Z 20/10Z 20/11Z>>
Type OBS PRVL PRVL PRVL PRVL PRVL PRVL PRVL PRVL PRVL PRVL PRVL PRVL PRVL
VIS 4 6 3 3 3 3 >6 >6 >6 >6 >6 >6 >6 >6
CIG 8 8 12 12 12 12 15 15 15 15 15 15 15 15
Cover OVC OVC OVC OVC OVC OVC OVC OVC OVC OVC OVC OVC OVC OVC
FltCat IFR IFR MVFR MVFR MVFR MVFR MVFR MVFR MVFR MVFR MVFR MVFR MVFR MVFR
WX -SN BR -RA -SN -SN -SN -SN -SN -- -- -- -- -- -- -- --
WDir 310 330 330 330 330 330 350 350 350 350 350 350 350 350
WSpd 17 22 22 22 22 22 16 16 16 16 16 16 16 16
WGst 24 30 30 30 30 30 23 23 23 23 23 23 23 23
Raw TAF
KMEM 192130Z 1922/2024 32022G30KT P6SM VCSH OVC013
  FM192300 33022G30KT 6SM -RASN OVC008
  FM200000 33022G30KT 3SM -SN OVC012
  FM200400 35016G23KT P6SM OVC015
  FM201500 01012KT P6SM SCT030


Raw METAR
KMEM 192226Z 31017G24KT 4SM -SN BR BKN008 BKN018 OVC024 01/01 A2977 RMK AO2 RAE13SNB13 P0000 T00110006 $
KMEM 192205Z 33018G25KT 6SM -RA BR BKN012 OVC032 02/01 A2975 RMK AO2 P0000 T00220011 $
KMEM 192154Z 31016G26KT 10SM -RA BKN017 BKN026 OVC032 03/02 A2974 RMK AO2 PK WND 31029/2121 RAB36 SLP071 P0000 T00280017 $
KMEM 192133Z 32017G25KT 10SM OVC015 03/01 A2972 RMK AO2 PK WND 31029/2121 T00330011 $
KMEM 192120Z 32022G27KT 7SM OVC013 03/02 A2971 RMK AO2 PK WND 31027/2120 T00330017 $
KMEM 192054Z 33018G26KT 10SM BKN015 BKN022 OVC030 04/02 A2968 RMK AO2 PK WND 32030/2023 RAE33 SLP052 P0000 60001 T00390022 53048 $
KMEM 191954Z 31020G28KT 9SM -RA OVC010 06/04 A2962 RMK AO2 PK WND 31028/1954 RAB1855 CIG 008V015 SLP029 P0000 T00560044 $

METAR Board
Radar Display
Forecast Discussion
For situational awareness. Not to be used for flight planning purposes.